createdAt,value
2022-12-09T00:00:48.861Z,19.50
2022-12-09T00:03:24.775Z,19.50
2022-12-09T00:06:00.994Z,19.60
2022-12-09T00:08:37.764Z,19.70
2022-12-09T00:11:17.098Z,19.70
2022-12-09T00:13:55.209Z,19.90
2022-12-09T00:16:31.956Z,20.10
2022-12-09T00:19:09.091Z,20.10
2022-12-09T00:21:46.323Z,20.20
2022-12-09T00:24:22.930Z,20.20
2022-12-09T00:27:02.144Z,20.20
2022-12-09T00:29:39.187Z,20.10
2022-12-09T00:32:17.522Z,20.00
2022-12-09T00:34:54.487Z,20.10
2022-12-09T00:37:30.626Z,20.20
2022-12-09T00:40:08.257Z,20.30
2022-12-09T00:42:47.862Z,20.40
2022-12-09T00:45:24.619Z,20.60
2022-12-09T00:48:00.506Z,20.50
2022-12-09T00:50:36.703Z,20.50
2022-12-09T00:53:13.835Z,20.50
2022-12-09T00:55:50.807Z,20.50
2022-12-09T00:58:29.769Z,20.60
2022-12-09T01:01:07.281Z,20.70
2022-12-09T01:03:45.938Z,20.80
2022-12-09T01:06:26.155Z,20.80
2022-12-09T01:09:02.588Z,20.80
2022-12-09T01:11:39.646Z,20.90
2022-12-09T01:14:18.924Z,20.90
2022-12-09T01:16:56.032Z,20.90
2022-12-09T01:19:32.453Z,20.80
2022-12-09T01:22:08.965Z,20.50
2022-12-09T01:24:46.081Z,20.50
2022-12-09T01:27:23.074Z,20.60
2022-12-09T01:30:01.097Z,20.60
2022-12-09T01:32:37.851Z,20.60
2022-12-09T01:35:15.604Z,20.60
2022-12-09T01:37:51.462Z,20.50
2022-12-09T01:40:28.075Z,20.40
2022-12-09T01:43:05.623Z,20.60
2022-12-09T01:45:49.750Z,20.70
2022-12-09T01:48:28.378Z,20.80
2022-12-09T01:51:06.408Z,20.80
2022-12-09T01:53:47.099Z,20.70
2022-12-09T01:56:27.740Z,20.80
2022-12-09T01:59:07.205Z,21.00
2022-12-09T02:01:46.613Z,21.10
2022-12-09T02:04:24.061Z,21.00
2022-12-09T02:07:02.092Z,21.10
2022-12-09T02:09:38.694Z,21.20
2022-12-09T02:12:20.518Z,21.20
2022-12-09T02:15:06.014Z,21.20
2022-12-09T02:20:29.018Z,22.20
2022-12-09T02:23:12.972Z,21.10
2022-12-09T02:25:53.375Z,21.10
2022-12-09T02:29:04.294Z,20.90
2022-12-09T02:32:12.999Z,20.90
2022-12-09T02:34:58.548Z,20.90
2022-12-09T02:37:43.954Z,21.00
2022-12-09T02:40:25.906Z,20.90
2022-12-09T02:43:04.024Z,20.90
2022-12-09T02:45:44.665Z,20.90
2022-12-09T02:48:25.686Z,20.70
2022-12-09T02:51:06.271Z,20.70
2022-12-09T02:53:44.492Z,20.70
2022-12-09T02:56:23.356Z,20.70
2022-12-09T02:59:03.600Z,20.90
2022-12-09T03:01:44.078Z,21.00
2022-12-09T03:04:24.819Z,20.90
2022-12-09T03:07:10.651Z,20.80
2022-12-09T03:09:53.499Z,20.80
2022-12-09T03:12:34.413Z,20.80
2022-12-09T03:15:12.717Z,20.80
2022-12-09T03:17:50.876Z,20.80
2022-12-09T03:20:32.729Z,20.90
2022-12-09T03:23:13.383Z,20.90
2022-12-09T03:25:52.138Z,21.00
2022-12-09T03:28:35.053Z,21.00
2022-12-09T03:31:15.099Z,21.00
2022-12-09T03:33:54.893Z,20.80
2022-12-09T03:36:34.661Z,20.80
2022-12-09T03:39:17.296Z,20.80
2022-12-09T03:41:57.531Z,20.90
2022-12-09T03:44:40.854Z,20.80
2022-12-09T03:47:17.789Z,20.80
2022-12-09T03:49:54.805Z,20.80
2022-12-09T03:52:37.362Z,20.90
2022-12-09T03:55:24.001Z,20.90
2022-12-09T03:58:05.591Z,20.90
2022-12-09T04:00:44.105Z,20.90
2022-12-09T04:03:22.443Z,20.90
2022-12-09T04:05:59.339Z,21.00
2022-12-09T04:08:35.620Z,20.90
2022-12-09T04:13:50.537Z,20.60
2022-12-09T04:16:26.920Z,20.70
2022-12-09T04:19:03.501Z,20.50
2022-12-09T04:21:39.978Z,20.50
2022-12-09T04:29:32.137Z,20.40
2022-12-09T04:32:09.860Z,20.60
2022-12-09T04:34:46.150Z,20.60
2022-12-09T04:37:25.156Z,20.70
2022-12-09T04:40:01.505Z,20.70
2022-12-09T04:42:39.898Z,20.80
2022-12-09T04:45:17.205Z,20.60
2022-12-09T04:47:54.463Z,20.70
2022-12-09T04:53:09.742Z,20.50
2022-12-09T04:55:45.515Z,20.40
2022-12-09T04:58:24.745Z,20.50
2022-12-09T05:01:04.821Z,20.40
2022-12-09T05:03:42.248Z,20.60
2022-12-09T05:06:20.027Z,20.60
2022-12-09T05:08:57.931Z,20.50
2022-12-09T05:11:33.848Z,20.50
2022-12-09T05:14:13.667Z,20.40
2022-12-09T05:16:50.265Z,20.30
2022-12-09T05:19:27.182Z,20.20
2022-12-09T05:22:03.460Z,20.20
2022-12-09T05:24:39.460Z,20.10
2022-12-09T05:27:16.134Z,20.10
2022-12-09T05:29:55.375Z,20.10
2022-12-09T05:32:33.568Z,20.10
2022-12-09T05:35:10.457Z,20.00
2022-12-09T05:37:47.517Z,20.00
2022-12-09T05:40:25.365Z,19.90
2022-12-09T05:43:01.809Z,19.80
2022-12-09T05:45:40.394Z,19.80
2022-12-09T05:48:18.669Z,19.80
2022-12-09T05:51:03.825Z,19.70
2022-12-09T05:53:40.244Z,19.60
2022-12-09T05:56:19.868Z,19.70
2022-12-09T05:58:56.725Z,19.70
2022-12-09T06:01:35.985Z,19.70
2022-12-09T06:04:13.349Z,19.70
2022-12-09T06:06:49.936Z,19.70
2022-12-09T06:09:26.597Z,19.70
2022-12-09T06:12:04.309Z,19.70
2022-12-09T06:14:40.466Z,19.70
2022-12-09T06:17:20.032Z,19.80
2022-12-09T06:19:56.501Z,19.90
2022-12-09T06:22:33.341Z,19.70
2022-12-09T06:25:10.503Z,19.80
2022-12-09T06:27:47.470Z,19.80
2022-12-09T06:30:23.990Z,19.70
2022-12-09T06:33:09.215Z,19.70
2022-12-09T06:35:54.423Z,19.70
2022-12-09T06:38:34.766Z,19.80
2022-12-09T06:41:13.675Z,19.90
2022-12-09T06:43:50.206Z,19.80
2022-12-09T06:46:28.140Z,19.80
2022-12-09T06:49:07.260Z,19.80
2022-12-09T06:51:44.094Z,19.80
2022-12-09T06:54:22.431Z,19.90
2022-12-09T06:56:58.344Z,19.80
2022-12-09T06:59:35.237Z,19.70
2022-12-09T07:02:11.734Z,19.70
2022-12-09T07:04:50.679Z,19.70
2022-12-09T07:07:28.191Z,19.60
2022-12-09T07:10:06.759Z,19.60
2022-12-09T07:12:43.611Z,19.60
2022-12-09T07:15:20.617Z,19.50
2022-12-09T07:17:57.110Z,19.50
2022-12-09T07:20:35.581Z,19.50
2022-12-09T07:23:12.571Z,19.50
2022-12-09T07:25:49.102Z,19.50
2022-12-09T07:28:24.975Z,19.50
2022-12-09T07:31:01.947Z,19.50
2022-12-09T07:33:37.542Z,19.40
2022-12-09T07:36:20.673Z,19.40
2022-12-09T07:39:02.348Z,19.30
2022-12-09T07:41:40.048Z,19.30
2022-12-09T07:44:19.329Z,19.20
2022-12-09T07:46:57.387Z,19.20
2022-12-09T07:49:34.208Z,19.10
2022-12-09T07:52:12.645Z,19.10
2022-12-09T07:54:49.843Z,19.10
2022-12-09T07:57:26.156Z,19.10
2022-12-09T08:00:02.784Z,19.10
2022-12-09T08:02:47.867Z,19.10
2022-12-09T08:05:25.577Z,19.20
2022-12-09T08:08:04.235Z,19.20
2022-12-09T08:10:41.589Z,19.20
2022-12-09T08:13:18.291Z,19.30
2022-12-09T08:15:55.327Z,19.30
2022-12-09T08:18:31.890Z,19.50
2022-12-09T08:21:11.145Z,19.30
2022-12-09T08:23:52.923Z,19.20
2022-12-09T08:26:31.774Z,19.20
2022-12-09T08:29:12.292Z,19.20
2022-12-09T08:31:50.469Z,19.20
2022-12-09T08:34:26.982Z,19.10
2022-12-09T08:37:03.194Z,19.10
2022-12-09T08:39:41.856Z,19.10
2022-12-09T08:42:18.378Z,19.00
2022-12-09T08:45:01.640Z,18.90
2022-12-09T08:47:39.566Z,19.00
2022-12-09T08:50:16.564Z,19.00
2022-12-09T08:52:54.045Z,19.00
2022-12-09T08:55:32.644Z,18.90
2022-12-09T08:58:09.830Z,19.00
2022-12-09T09:00:46.775Z,19.00
2022-12-09T09:03:23.488Z,19.10
2022-12-09T09:06:09.612Z,19.10
2022-12-09T09:08:48.011Z,19.00
2022-12-09T09:11:28.780Z,19.00
2022-12-09T09:14:07.917Z,18.90
2022-12-09T09:16:45.802Z,18.90
2022-12-09T09:19:24.370Z,18.90
2022-12-09T09:22:01.328Z,19.00
2022-12-09T09:24:37.791Z,18.90
2022-12-09T09:27:16.579Z,18.90
2022-12-09T09:29:53.621Z,19.00
2022-12-09T09:32:29.806Z,18.90
2022-12-09T09:35:06.338Z,18.90
2022-12-09T09:37:43.852Z,18.90
2022-12-09T09:40:21.787Z,18.90
2022-12-09T09:43:02.139Z,18.90
2022-12-09T09:45:39.188Z,19.00
2022-12-09T09:48:20.184Z,18.80
2022-12-09T09:51:03.676Z,18.80
2022-12-09T09:53:41.771Z,18.80
2022-12-09T09:56:30.008Z,18.80
2022-12-09T09:59:21.276Z,18.90
2022-12-09T10:02:10.522Z,18.90
2022-12-09T10:04:57.340Z,18.80
2022-12-09T10:07:43.439Z,18.80
2022-12-09T10:10:28.833Z,18.80
2022-12-09T10:13:18.777Z,19.10
2022-12-09T10:16:05.665Z,18.90
2022-12-09T10:18:47.313Z,18.90
2022-12-09T10:21:25.930Z,18.90
2022-12-09T10:24:04.779Z,18.90
2022-12-09T10:26:40.644Z,18.90
2022-12-09T10:29:23.938Z,18.90
2022-12-09T10:32:03.412Z,18.90
2022-12-09T10:34:40.866Z,18.80
2022-12-09T10:37:30.182Z,18.80
2022-12-09T10:40:26.502Z,18.70
2022-12-09T10:43:19.996Z,18.80
2022-12-09T10:49:05.760Z,18.90
2022-12-09T10:51:48.217Z,18.90
2022-12-09T10:54:37.926Z,18.80
2022-12-09T10:57:28.968Z,18.90
2022-12-09T11:00:08.447Z,18.90
2022-12-09T11:02:57.013Z,18.80
2022-12-09T11:05:38.524Z,18.90
2022-12-09T11:08:15.595Z,18.80
2022-12-09T11:10:55.563Z,18.80
2022-12-09T11:13:47.552Z,18.70
2022-12-09T11:16:34.571Z,18.80
2022-12-09T11:19:11.439Z,18.80
2022-12-09T11:21:50.170Z,18.90
2022-12-09T11:24:28.687Z,18.90
2022-12-09T11:27:05.260Z,18.90
2022-12-09T11:29:42.464Z,18.90
2022-12-09T11:32:21.280Z,18.90
2022-12-09T11:34:58.526Z,18.90
2022-12-09T11:37:38.374Z,19.00
2022-12-09T11:40:23.640Z,19.00
2022-12-09T11:43:00.748Z,19.00
2022-12-09T11:45:40.346Z,18.90
2022-12-09T11:48:36.207Z,18.80
2022-12-09T11:51:27.653Z,18.60
2022-12-09T11:54:10.822Z,18.60
2022-12-09T11:56:48.643Z,18.60
2022-12-09T11:59:27.738Z,18.70
2022-12-09T12:02:10.945Z,18.70
2022-12-09T12:07:34.022Z,18.70
2022-12-09T12:10:21.142Z,18.80
2022-12-09T12:13:06.861Z,18.80
2022-12-09T12:15:53.483Z,18.80
2022-12-09T12:18:32.174Z,20.10
2022-12-09T12:21:24.311Z,18.80
2022-12-09T12:24:22.856Z,18.70
2022-12-09T12:27:11.854Z,18.70
2022-12-09T12:29:55.331Z,18.70
2022-12-09T12:32:43.262Z,18.70
2022-12-09T12:35:59.186Z,18.60
2022-12-09T12:38:55.467Z,18.70
2022-12-09T12:41:40.097Z,18.60
2022-12-09T12:44:59.680Z,18.70
2022-12-09T12:47:44.935Z,18.80
2022-12-09T12:50:51.197Z,18.80
2022-12-09T12:53:41.022Z,18.70
2022-12-09T12:56:24.178Z,18.70
2022-12-09T12:59:09.302Z,18.80
2022-12-09T13:01:56.944Z,18.80
2022-12-09T13:04:41.418Z,18.80
2022-12-09T13:07:26.020Z,18.70
2022-12-09T13:10:08.170Z,18.70
2022-12-09T13:12:58.726Z,18.70
2022-12-09T13:15:42.291Z,18.70
2022-12-09T13:18:24.706Z,18.70
2022-12-09T13:21:01.848Z,18.70
2022-12-09T13:23:53.478Z,18.70
2022-12-09T13:26:37.932Z,18.70
2022-12-09T13:29:27.575Z,18.60
2022-12-09T13:32:09.614Z,18.60
2022-12-09T13:34:51.697Z,18.60
2022-12-09T13:37:56.473Z,18.60
2022-12-09T13:40:40.755Z,18.60
2022-12-09T13:43:28.827Z,18.50
2022-12-09T13:46:06.535Z,18.60
2022-12-09T13:49:00.328Z,18.60
2022-12-09T13:51:50.389Z,18.60
2022-12-09T13:54:29.206Z,18.60
2022-12-09T13:57:21.599Z,18.60
2022-12-09T13:59:59.943Z,18.60
2022-12-09T14:02:43.586Z,18.60
2022-12-09T14:05:23.176Z,18.60
2022-12-09T14:08:05.133Z,18.60
2022-12-09T14:10:47.113Z,18.60
2022-12-09T14:13:33.015Z,18.60
2022-12-09T14:16:39.051Z,18.60
2022-12-09T14:19:56.474Z,18.50
2022-12-09T14:22:44.655Z,18.60
2022-12-09T14:26:04.552Z,18.60
2022-12-09T14:28:58.411Z,18.60
2022-12-09T14:31:56.385Z,18.60
2022-12-09T14:34:50.844Z,18.50
2022-12-09T14:37:40.402Z,18.50
2022-12-09T14:40:52.225Z,18.50
2022-12-09T14:43:50.470Z,18.60
2022-12-09T14:46:31.361Z,18.60
2022-12-09T14:49:15.749Z,18.50
2022-12-09T14:51:54.014Z,18.60
2022-12-09T14:54:33.616Z,18.50
2022-12-09T14:57:15.941Z,18.50
2022-12-09T15:00:00.946Z,18.40
2022-12-09T15:02:39.347Z,18.30
2022-12-09T15:05:23.435Z,18.20
2022-12-09T15:07:59.892Z,18.20
2022-12-09T15:10:40.041Z,18.20
2022-12-09T15:13:16.984Z,18.20
2022-12-09T15:15:55.628Z,18.20
2022-12-09T15:18:32.652Z,18.20
2022-12-09T15:21:09.370Z,18.20
2022-12-09T15:23:46.535Z,18.20
2022-12-09T15:26:26.897Z,18.20
2022-12-09T15:29:06.907Z,18.20
2022-12-09T15:31:55.356Z,18.20
2022-12-09T15:34:31.322Z,18.30
2022-12-09T15:37:10.214Z,18.30
2022-12-09T15:39:49.208Z,18.30
2022-12-09T15:42:29.365Z,18.30
2022-12-09T15:45:13.322Z,18.40
2022-12-09T15:47:56.663Z,18.30
2022-12-09T15:50:36.006Z,18.30
2022-12-09T15:53:19.548Z,18.30
2022-12-09T15:55:59.581Z,18.30
2022-12-09T15:58:41.072Z,18.30
2022-12-09T16:01:26.695Z,18.30
2022-12-09T16:04:06.459Z,18.30
2022-12-09T16:06:42.908Z,18.30
2022-12-09T16:09:20.530Z,18.30
2022-12-09T16:11:58.023Z,18.30
2022-12-09T16:14:47.767Z,18.30
2022-12-09T16:17:28.139Z,18.30
2022-12-09T16:20:27.011Z,18.30
2022-12-09T16:23:03.196Z,18.30
2022-12-09T16:25:43.311Z,18.30
2022-12-09T16:28:26.552Z,18.30
2022-12-09T16:31:05.148Z,18.30
2022-12-09T16:33:44.912Z,18.20
2022-12-09T16:36:26.209Z,18.10
2022-12-09T16:39:40.248Z,18.10
2022-12-09T16:42:27.304Z,18.00
2022-12-09T16:45:28.558Z,18.00
2022-12-09T16:48:05.886Z,18.00
2022-12-09T16:50:44.912Z,18.10
2022-12-09T16:53:25.105Z,18.20
2022-12-09T16:56:03.687Z,18.20
2022-12-09T16:58:40.329Z,18.10
2022-12-09T17:01:20.522Z,18.10
2022-12-09T17:04:00.675Z,18.10
2022-12-09T17:06:37.385Z,18.10
2022-12-09T17:09:15.698Z,18.20
2022-12-09T17:11:52.074Z,18.20
2022-12-09T17:14:28.594Z,18.20
2022-12-09T17:17:07.156Z,18.20
2022-12-09T17:19:45.564Z,18.10
2022-12-09T17:22:23.407Z,18.10
2022-12-09T17:25:01.848Z,18.20
2022-12-09T17:27:39.081Z,18.10
2022-12-09T17:30:16.057Z,18.10
2022-12-09T17:32:53.060Z,18.10
2022-12-09T17:35:29.600Z,18.10
2022-12-09T17:38:06.176Z,18.10
2022-12-09T17:40:44.258Z,18.10
2022-12-09T17:43:20.664Z,18.10
2022-12-09T17:45:56.761Z,18.00
2022-12-09T17:48:35.208Z,18.00
2022-12-09T17:51:14.783Z,18.00
2022-12-09T17:53:52.034Z,18.00
2022-12-09T17:56:30.365Z,18.00
2022-12-09T17:59:09.503Z,18.00
2022-12-09T18:01:45.777Z,18.10
2022-12-09T18:04:22.176Z,18.10
2022-12-09T18:06:58.205Z,18.10
2022-12-09T18:09:35.434Z,18.10
2022-12-09T18:12:13.058Z,18.10
2022-12-09T18:14:49.241Z,18.10
2022-12-09T18:17:25.482Z,18.20
2022-12-09T18:20:02.514Z,18.20
2022-12-09T18:22:38.232Z,18.20
2022-12-09T18:25:15.212Z,18.20
2022-12-09T18:27:53.085Z,18.30
2022-12-09T18:30:30.031Z,18.30
2022-12-09T18:33:06.199Z,18.30
2022-12-09T18:35:46.412Z,18.30
2022-12-09T18:38:23.906Z,18.30
2022-12-09T18:41:06.222Z,18.30
2022-12-09T18:43:48.112Z,18.30
2022-12-09T18:46:26.441Z,18.30
2022-12-09T18:49:04.271Z,18.30
2022-12-09T18:51:42.619Z,18.30
2022-12-09T18:54:21.281Z,18.30
2022-12-09T18:56:57.984Z,18.30
2022-12-09T18:59:35.961Z,18.30
2022-12-09T19:02:15.950Z,18.30
2022-12-09T19:04:52.179Z,18.30
2022-12-09T19:07:32.476Z,18.20
2022-12-09T19:10:09.261Z,18.20
2022-12-09T19:12:48.263Z,18.10
2022-12-09T19:15:27.565Z,18.00
2022-12-09T19:18:03.555Z,17.90
2022-12-09T19:20:40.224Z,17.80
2022-12-09T19:23:17.139Z,17.80
2022-12-09T19:25:52.572Z,17.80
2022-12-09T19:28:28.904Z,17.70
2022-12-09T19:31:16.922Z,17.60
2022-12-09T19:33:53.350Z,17.60
2022-12-09T19:36:30.412Z,17.50
2022-12-09T19:39:09.916Z,17.50
2022-12-09T19:41:46.411Z,17.50
2022-12-09T19:44:52.530Z,17.40
2022-12-09T19:47:22.115Z,17.50
2022-12-09T19:49:58.092Z,17.50
2022-12-09T19:52:34.369Z,17.60
2022-12-09T19:55:13.203Z,17.60
2022-12-09T19:57:49.315Z,17.70
2022-12-09T20:00:25.206Z,17.60
2022-12-09T20:03:05.353Z,17.60
2022-12-09T20:05:41.841Z,17.60
2022-12-09T20:08:17.362Z,17.60
2022-12-09T20:10:55.262Z,17.60
2022-12-09T20:13:32.219Z,17.70
2022-12-09T20:16:10.964Z,17.60
2022-12-09T20:18:50.417Z,17.70
2022-12-09T20:21:28.121Z,17.80
2022-12-09T20:24:07.620Z,17.80
2022-12-09T20:26:46.032Z,17.90
2022-12-09T20:29:22.441Z,18.00
2022-12-09T20:31:59.438Z,18.00
2022-12-09T20:34:37.447Z,18.10
2022-12-09T20:37:14.321Z,18.10
2022-12-09T20:39:50.856Z,18.20
2022-12-09T20:42:28.064Z,18.20
2022-12-09T20:45:04.728Z,18.20
2022-12-09T20:47:41.948Z,18.10
2022-12-09T20:50:38.404Z,18.20
2022-12-09T20:53:15.516Z,18.30
2022-12-09T20:56:01.407Z,18.40
2022-12-09T20:58:40.534Z,18.50
2022-12-09T21:01:18.333Z,18.40
2022-12-09T21:03:55.471Z,18.40
2022-12-09T21:06:36.240Z,18.60
2022-12-09T21:09:15.914Z,18.80
2022-12-09T21:11:53.197Z,18.80
2022-12-09T21:14:33.158Z,18.90
2022-12-09T21:17:10.603Z,18.90
2022-12-09T21:19:47.009Z,18.90
2022-12-09T21:22:28.150Z,19.00
2022-12-09T21:25:04.760Z,19.10
2022-12-09T21:27:41.729Z,19.10
2022-12-09T21:30:22.594Z,19.20
2022-12-09T21:32:58.314Z,19.20
2022-12-09T21:35:34.187Z,19.30
2022-12-09T21:38:12.859Z,19.30
2022-12-09T21:40:49.567Z,19.40
2022-12-09T21:43:25.774Z,19.50
2022-12-09T21:46:03.096Z,19.60
2022-12-09T21:48:39.658Z,19.80
2022-12-09T21:51:22.077Z,19.90
2022-12-09T22:01:50.959Z,20.10
2022-12-09T22:04:26.947Z,20.30
2022-12-09T22:07:03.266Z,20.30
2022-12-09T22:09:41.855Z,20.20
2022-12-09T22:17:37.337Z,20.50
2022-12-09T22:33:41.157Z,20.70
2022-12-09T22:36:18.486Z,20.90
2022-12-09T22:38:55.574Z,21.00
2022-12-09T22:41:35.760Z,21.10
2022-12-09T22:44:13.414Z,21.20
2022-12-09T22:52:07.310Z,21.10
2022-12-09T22:54:43.869Z,21.00
2022-12-09T22:57:21.649Z,20.90
2022-12-09T23:23:27.420Z,21.60
